Airport View

Enter AWOS ICAO identifier for current METAR.

ex. KFNL

KCAV 192340Z AUTO 10004KT 10SM SCT017 OVC060 01/01 A3022 RMK A01

19 Oct 2020 23:40

Frequency: 126.575

Phone: 515-532-3515

Other Area AWOS: KEBS - KFOD - KHPT - KIFA

TAF KFOD 191743Z 1918/2018 13007KT P6SM -SN BKN025 TEMPO 1918/1920 3SM -SN BR BKN011 FM192000 12005KT P6SM OVC030 FM192200 11004KT P6SM BKN045 FM201700 13011G19KT P6SM OVC020